createdAt,value
2018-07-04T00:00:51.714Z,7.87
2018-07-04T00:03:30.177Z,14.68
2018-07-04T00:06:08.700Z,8.50
2018-07-04T00:08:47.181Z,13.60
2018-07-04T00:11:25.757Z,16.00
2018-07-04T00:14:04.112Z,10.48
2018-07-04T00:16:42.701Z,12.50
2018-07-04T00:19:21.247Z,8.65
2018-07-04T00:21:59.833Z,14.10
2018-07-04T00:24:38.474Z,12.35
2018-07-04T00:27:17.105Z,11.65
2018-07-04T00:29:55.601Z,17.17
2018-07-04T00:32:34.321Z,8.45
2018-07-04T00:35:12.802Z,12.63
2018-07-04T00:37:51.304Z,11.28
2018-07-04T00:40:29.738Z,12.37
2018-07-04T00:43:08.329Z,10.95
2018-07-04T00:45:46.785Z,8.18
2018-07-04T00:48:25.156Z,12.58
2018-07-04T00:51:03.677Z,8.00
2018-07-04T00:53:42.353Z,14.07
2018-07-04T00:56:20.885Z,14.50
2018-07-04T00:58:59.436Z,7.80
2018-07-04T01:01:38.026Z,12.00
2018-07-04T01:04:16.665Z,12.70
2018-07-04T01:06:55.266Z,9.53
2018-07-04T01:09:33.779Z,18.95
2018-07-04T01:12:12.217Z,8.60
2018-07-04T01:14:50.893Z,19.12
2018-07-04T01:17:29.381Z,11.90
2018-07-04T01:20:07.821Z,12.43
2018-07-04T01:22:46.377Z,12.20
2018-07-04T01:25:24.805Z,11.33
2018-07-04T01:28:03.349Z,11.20
2018-07-04T01:30:42.001Z,11.78
2018-07-04T01:33:20.701Z,13.78
2018-07-04T01:35:59.294Z,16.48
2018-07-04T01:38:37.770Z,12.13
2018-07-04T01:41:16.313Z,13.25
2018-07-04T01:43:54.970Z,19.30
2018-07-04T01:46:33.723Z,19.95
2018-07-04T01:49:12.323Z,12.33
2018-07-04T01:51:50.737Z,12.05
2018-07-04T01:54:29.132Z,13.60
2018-07-04T01:57:08.001Z,15.20
2018-07-04T01:59:46.593Z,15.63
2018-07-04T02:02:25.145Z,16.17
2018-07-04T02:05:03.548Z,12.82
2018-07-04T02:07:42.152Z,11.35
2018-07-04T02:10:20.753Z,15.78
2018-07-04T02:12:59.313Z,11.95
2018-07-04T02:15:37.964Z,11.65
2018-07-04T02:18:16.538Z,14.23
2018-07-04T02:20:55.029Z,14.70
2018-07-04T02:23:33.542Z,18.00
2018-07-04T02:26:12.397Z,10.48
2018-07-04T02:28:50.829Z,10.98
2018-07-04T02:31:29.258Z,13.62
2018-07-04T02:34:07.870Z,12.50
2018-07-04T02:36:46.566Z,16.40
2018-07-04T02:39:25.013Z,14.90
2018-07-04T02:42:03.520Z,17.57
2018-07-04T02:44:41.865Z,18.20
2018-07-04T02:47:26.869Z,12.65
2018-07-04T02:50:05.577Z,10.68
2018-07-04T02:52:44.333Z,18.20
2018-07-04T02:55:23.129Z,14.60
2018-07-04T02:58:01.630Z,14.87
2018-07-04T03:00:40.158Z,18.23
2018-07-04T03:03:18.690Z,16.95
2018-07-04T03:05:57.261Z,16.57
2018-07-04T03:08:36.139Z,15.25
2018-07-04T03:11:14.673Z,10.23
2018-07-04T03:13:53.265Z,10.85
2018-07-04T03:16:31.885Z,14.83
2018-07-04T03:19:10.499Z,11.90
2018-07-04T03:21:48.965Z,14.98
2018-07-04T03:24:27.619Z,14.28
2018-07-04T03:27:06.263Z,15.85
2018-07-04T03:29:44.844Z,12.30
2018-07-04T03:32:23.509Z,11.53
2018-07-04T03:35:02.110Z,13.60
2018-07-04T03:37:40.650Z,13.13
2018-07-04T03:40:19.221Z,18.80
2018-07-04T03:42:57.920Z,13.88
2018-07-04T03:45:36.510Z,15.83
2018-07-04T03:48:14.989Z,15.50
2018-07-04T03:50:53.592Z,17.07
2018-07-04T03:53:32.059Z,12.95
2018-07-04T03:56:10.558Z,14.55
2018-07-04T03:58:49.058Z,13.75
2018-07-04T04:01:27.889Z,9.75
2018-07-04T04:04:06.420Z,14.83
2018-07-04T04:06:45.079Z,19.15
2018-07-04T04:09:23.765Z,13.03
2018-07-04T04:12:02.661Z,16.70
2018-07-04T04:14:41.169Z,15.88
2018-07-04T04:17:19.904Z,16.23
2018-07-04T04:19:58.457Z,14.65
2018-07-04T04:22:37.170Z,12.55
2018-07-04T04:25:15.566Z,21.07
2018-07-04T04:27:54.101Z,20.70
2018-07-04T04:30:32.983Z,13.50
2018-07-04T04:33:11.665Z,15.30
2018-07-04T04:35:50.319Z,18.77
2018-07-04T04:38:28.920Z,15.90
2018-07-04T04:41:07.554Z,16.00
2018-07-04T04:43:46.355Z,21.20
2018-07-04T04:46:24.864Z,14.07
2018-07-04T04:49:03.611Z,14.25
2018-07-04T04:51:42.173Z,18.55
2018-07-04T04:54:21.093Z,18.20
2018-07-04T04:56:59.706Z,18.20
2018-07-04T04:59:38.371Z,21.65
2018-07-04T05:02:16.973Z,16.82
2018-07-04T05:04:55.604Z,21.40
2018-07-04T05:07:34.121Z,15.43
2018-07-04T05:10:12.673Z,22.30
2018-07-04T05:12:51.140Z,20.32
2018-07-04T05:15:29.654Z,15.40
2018-07-04T05:18:08.121Z,16.85
2018-07-04T05:20:46.801Z,18.07
2018-07-04T05:23:25.396Z,25.37
2018-07-04T05:26:04.064Z,14.07
2018-07-04T05:28:42.649Z,20.02
2018-07-04T05:31:21.234Z,19.60
2018-07-04T05:33:59.706Z,19.57
2018-07-04T05:36:38.378Z,20.40
2018-07-04T05:39:16.874Z,20.40
2018-07-04T05:41:55.581Z,20.50
2018-07-04T05:44:34.193Z,27.02
2018-07-04T05:47:12.674Z,24.47
2018-07-04T05:49:51.181Z,24.65
2018-07-04T05:52:29.703Z,24.05
2018-07-04T05:55:08.196Z,23.32
2018-07-04T05:57:46.841Z,20.60
2018-07-04T06:00:25.442Z,23.92
2018-07-04T06:03:03.928Z,21.67
2018-07-04T06:05:42.613Z,17.40
2018-07-04T06:08:21.111Z,14.60
2018-07-04T06:10:59.680Z,13.90
2018-07-04T06:13:38.281Z,18.65
2018-07-04T06:16:16.832Z,13.98
2018-07-04T06:18:55.266Z,19.20
2018-07-04T06:21:34.189Z,17.37
2018-07-04T06:24:12.673Z,17.37
2018-07-04T06:26:51.193Z,9.53
2018-07-04T06:29:29.609Z,19.48
2018-07-04T06:32:08.273Z,15.03
2018-07-04T06:34:46.693Z,20.12
2018-07-04T06:37:25.158Z,11.15
2018-07-04T06:39:51.216Z,21.90
2018-07-04T06:42:17.317Z,16.53
2018-07-04T06:44:43.398Z,13.80
2018-07-04T06:47:09.549Z,11.87
2018-07-04T06:49:35.635Z,15.60
2018-07-04T06:52:01.709Z,11.77
2018-07-04T06:54:27.860Z,14.60
2018-07-04T06:56:53.994Z,16.67
2018-07-04T06:59:20.057Z,13.87
2018-07-04T07:01:46.148Z,24.37
2018-07-04T07:04:24.801Z,13.10
2018-07-04T07:07:03.446Z,16.77
2018-07-04T07:09:42.094Z,15.18
2018-07-04T07:12:20.641Z,13.50
2018-07-04T07:14:59.185Z,19.77
2018-07-04T07:17:37.731Z,15.23
2018-07-04T07:20:16.279Z,13.43
2018-07-04T07:22:54.980Z,18.77
2018-07-04T07:25:33.557Z,22.43
2018-07-04T07:28:12.085Z,18.13
2018-07-04T07:30:50.614Z,18.77
2018-07-04T07:33:29.336Z,16.87
2018-07-04T07:36:07.978Z,14.87
2018-07-04T07:38:46.585Z,10.70
2018-07-04T07:41:24.977Z,11.93
2018-07-04T07:44:03.528Z,10.53
2018-07-04T07:46:42.041Z,10.87
2018-07-04T07:49:20.517Z,9.70
2018-07-04T07:51:59.009Z,7.37
2018-07-04T07:54:37.449Z,12.73
2018-07-04T07:57:16.194Z,7.20
2018-07-04T07:59:54.705Z,5.83
2018-07-04T08:02:33.224Z,7.40
2018-07-04T08:05:11.725Z,9.80
2018-07-04T08:07:50.240Z,7.57
2018-07-04T08:10:28.842Z,7.03
2018-07-04T08:13:07.734Z,9.60
2018-07-04T08:15:46.281Z,7.80
2018-07-04T08:18:24.769Z,10.80
2018-07-04T08:21:03.327Z,6.73
2018-07-04T08:23:41.994Z,5.53
2018-07-04T08:26:20.481Z,9.50
2018-07-04T08:28:59.062Z,7.57
2018-07-04T08:31:37.505Z,9.23
2018-07-04T08:34:15.984Z,6.63
2018-07-04T08:36:54.421Z,6.00
2018-07-04T08:39:32.958Z,5.57
2018-07-04T08:42:11.465Z,9.63
2018-07-04T08:44:49.930Z,7.13
2018-07-04T08:47:28.366Z,5.93
2018-07-04T08:50:06.893Z,8.27
2018-07-04T08:52:45.544Z,7.43
2018-07-04T08:55:23.993Z,9.93
2018-07-04T08:58:02.524Z,7.57
2018-07-04T09:00:41.175Z,8.47
2018-07-04T09:03:19.590Z,9.37
2018-07-04T09:05:58.157Z,7.30
2018-07-04T09:08:36.765Z,9.13
2018-07-04T09:11:15.425Z,5.40
2018-07-04T09:13:53.857Z,8.47
2018-07-04T09:16:32.505Z,8.57
2018-07-04T09:19:11.225Z,8.33
2018-07-04T09:21:49.795Z,5.60
2018-07-04T09:24:28.476Z,14.40
2018-07-04T09:27:06.953Z,4.30
2018-07-04T09:29:45.460Z,10.83
2018-07-04T09:32:23.914Z,13.30
2018-07-04T09:35:02.701Z,6.90
2018-07-04T09:37:41.196Z,8.17
2018-07-04T09:40:19.969Z,9.27
2018-07-04T09:42:58.357Z,7.47
2018-07-04T09:45:36.946Z,7.00
2018-07-04T09:48:15.465Z,5.97
2018-07-04T09:50:54.078Z,2.73
2018-07-04T09:53:32.695Z,5.20
2018-07-04T09:56:11.222Z,6.30
2018-07-04T09:58:49.808Z,7.33
2018-07-04T10:01:28.222Z,7.13
2018-07-04T10:04:06.769Z,8.27
2018-07-04T10:06:45.237Z,7.13
2018-07-04T10:09:24.253Z,3.73
2018-07-04T10:12:02.740Z,4.70
2018-07-04T10:14:41.457Z,8.47
2018-07-04T10:17:20.173Z,12.80
2018-07-04T10:19:59.071Z,4.47
2018-07-04T10:22:37.677Z,10.40
2018-07-04T10:25:16.261Z,5.00
2018-07-04T10:27:54.782Z,6.03
2018-07-04T10:30:33.313Z,5.77
2018-07-04T10:33:11.944Z,8.70
2018-07-04T10:35:50.553Z,5.10
2018-07-04T10:38:29.106Z,9.77
2018-07-04T10:41:07.671Z,6.43
2018-07-04T10:43:46.362Z,4.00
2018-07-04T10:46:25.013Z,5.10
2018-07-04T10:49:03.706Z,8.53
2018-07-04T10:51:42.349Z,3.27
2018-07-04T10:54:20.942Z,10.10
2018-07-04T10:56:59.509Z,5.93
2018-07-04T10:59:37.953Z,5.27
2018-07-04T11:02:16.525Z,5.10
2018-07-04T11:04:54.989Z,3.80
2018-07-04T11:07:33.593Z,6.30
2018-07-04T11:10:12.251Z,4.80
2018-07-04T11:12:50.771Z,6.33
2018-07-04T11:15:29.485Z,7.67
2018-07-04T11:18:07.928Z,4.47
2018-07-04T11:20:46.510Z,7.43
2018-07-04T11:23:25.061Z,4.07
2018-07-04T11:26:03.497Z,3.90
2018-07-04T11:28:42.073Z,6.80
2018-07-04T11:31:20.703Z,5.70
2018-07-04T11:33:59.189Z,5.37
2018-07-04T11:36:37.713Z,9.83
2018-07-04T11:39:16.447Z,6.17
2018-07-04T11:41:55.029Z,5.57
2018-07-04T11:44:33.745Z,7.60
2018-07-04T11:46:59.864Z,6.40
2018-07-04T11:49:25.941Z,11.90
2018-07-04T11:51:52.273Z,6.10
2018-07-04T11:54:18.340Z,6.07
2018-07-04T11:56:44.713Z,6.23
2018-07-04T11:59:10.797Z,7.17
2018-07-04T12:01:36.946Z,5.07
2018-07-04T12:04:15.353Z,4.30
2018-07-04T12:06:53.929Z,7.97
2018-07-04T12:09:20.014Z,5.37
2018-07-04T12:11:46.093Z,7.20
2018-07-04T12:14:12.150Z,5.40
2018-07-04T12:16:38.404Z,4.53
2018-07-04T12:19:04.469Z,3.87
2018-07-04T12:21:30.557Z,6.73
2018-07-04T12:23:56.637Z,4.50
2018-07-04T12:26:22.721Z,8.53
2018-07-04T12:28:48.777Z,6.77
2018-07-04T12:31:14.846Z,5.87
2018-07-04T12:33:40.901Z,6.53
2018-07-04T12:36:07.050Z,4.17
2018-07-04T12:38:33.226Z,7.53
2018-07-04T12:40:59.280Z,7.33
2018-07-04T12:43:25.391Z,5.33
2018-07-04T12:45:51.433Z,5.00
2018-07-04T12:48:17.534Z,4.43
2018-07-04T12:50:43.601Z,6.47
2018-07-04T12:53:09.678Z,6.67
2018-07-04T12:55:48.294Z,6.83
2018-07-04T12:58:26.746Z,5.97
2018-07-04T13:01:05.487Z,4.93
2018-07-04T13:03:43.977Z,4.87
2018-07-04T13:06:22.584Z,5.27
2018-07-04T13:09:01.289Z,4.50
2018-07-04T13:11:39.957Z,2.70
2018-07-04T13:14:18.449Z,4.73
2018-07-04T13:16:56.845Z,4.73
2018-07-04T13:19:35.586Z,3.90
2018-07-04T13:22:14.102Z,2.70
2018-07-04T13:24:52.621Z,3.77
2018-07-04T13:27:31.145Z,6.17
2018-07-04T13:30:09.741Z,4.53
2018-07-04T13:32:48.401Z,2.50
2018-07-04T13:35:26.816Z,4.60
2018-07-04T13:38:05.383Z,6.40
2018-07-04T13:40:43.941Z,3.63
2018-07-04T13:43:22.422Z,2.60
2018-07-04T13:46:01.022Z,6.63
2018-07-04T13:48:39.557Z,4.97
2018-07-04T13:51:18.157Z,3.07
2018-07-04T13:53:56.909Z,3.60
2018-07-04T13:56:35.597Z,4.73
2018-07-04T13:59:14.197Z,3.60
2018-07-04T14:01:52.677Z,10.50
2018-07-04T14:04:31.219Z,2.10
2018-07-04T14:07:09.532Z,4.47
2018-07-04T14:09:48.109Z,3.50
2018-07-04T14:12:26.670Z,1.63
2018-07-04T14:15:05.150Z,2.50
2018-07-04T14:17:43.941Z,3.17
2018-07-04T14:20:22.986Z,3.00
2018-07-04T14:23:01.708Z,6.00
2018-07-04T14:25:40.321Z,5.30
2018-07-04T14:28:18.918Z,2.57
2018-07-04T14:30:57.421Z,3.07
2018-07-04T14:33:35.981Z,3.20
2018-07-04T14:36:15.090Z,4.97
2018-07-04T14:38:54.642Z,3.20
2018-07-04T14:41:33.121Z,2.27
2018-07-04T14:44:11.888Z,2.03
2018-07-04T14:46:50.482Z,3.13
2018-07-04T14:49:29.261Z,4.33
2018-07-04T14:52:08.164Z,4.63
2018-07-04T14:54:46.817Z,2.83
2018-07-04T14:57:25.306Z,2.97
2018-07-04T15:00:03.873Z,2.70
2018-07-04T15:02:42.601Z,2.23
2018-07-04T15:05:21.457Z,1.80
2018-07-04T15:08:00.050Z,2.00
2018-07-04T15:10:38.618Z,3.23
2018-07-04T15:13:17.341Z,2.83
2018-07-04T15:15:55.800Z,3.23
2018-07-04T15:18:34.341Z,2.10
2018-07-04T15:21:12.782Z,2.30
2018-07-04T15:23:51.646Z,1.97
2018-07-04T15:26:30.189Z,2.93
2018-07-04T15:29:08.924Z,4.97
2018-07-04T15:31:47.385Z,3.80
2018-07-04T15:34:25.897Z,2.90
2018-07-04T15:37:04.301Z,2.47
2018-07-04T15:39:42.985Z,2.00
2018-07-04T15:42:21.602Z,3.00
2018-07-04T15:45:00.158Z,2.60
2018-07-04T15:47:38.703Z,2.73
2018-07-04T15:50:17.238Z,2.60
2018-07-04T15:52:55.661Z,1.50
2018-07-04T15:55:34.349Z,2.50
2018-07-04T15:58:12.945Z,2.97
2018-07-04T16:00:51.601Z,2.40
2018-07-04T16:03:30.265Z,3.67
2018-07-04T16:06:08.794Z,2.60
2018-07-04T16:08:47.477Z,2.60
2018-07-04T16:11:25.973Z,1.93
2018-07-04T16:14:04.633Z,2.20
2018-07-04T16:16:43.460Z,4.33
2018-07-04T16:19:22.150Z,3.37
2018-07-04T16:22:00.669Z,2.53
2018-07-04T16:24:39.338Z,1.50
2018-07-04T16:27:17.853Z,4.27
2018-07-04T16:29:56.314Z,3.27
2018-07-04T16:32:34.743Z,2.93
2018-07-04T16:35:13.146Z,2.27
2018-07-04T16:37:51.696Z,4.10
2018-07-04T16:40:30.309Z,3.07
2018-07-04T16:43:08.924Z,4.03
2018-07-04T16:45:47.549Z,3.40
2018-07-04T16:48:26.060Z,4.60
2018-07-04T16:51:04.689Z,2.37
2018-07-04T16:53:43.253Z,3.90
2018-07-04T16:56:21.709Z,3.00
2018-07-04T16:59:00.334Z,2.77
2018-07-04T17:01:38.926Z,5.40
2018-07-04T17:04:17.549Z,3.90
2018-07-04T17:06:55.987Z,2.90
2018-07-04T17:09:34.441Z,2.97
2018-07-04T17:12:12.989Z,2.43
2018-07-04T17:14:51.664Z,3.30
2018-07-04T17:17:30.175Z,4.30
2018-07-04T17:20:08.832Z,2.60
2018-07-04T17:22:47.453Z,3.23
2018-07-04T17:25:25.967Z,4.63
2018-07-04T17:28:04.470Z,2.40
2018-07-04T17:30:43.053Z,4.03
2018-07-04T17:33:22.074Z,2.50
2018-07-04T17:36:00.550Z,1.87
2018-07-04T17:38:39.020Z,4.30
2018-07-04T17:41:17.594Z,3.17
2018-07-04T17:43:56.032Z,3.03
2018-07-04T17:46:34.677Z,4.47
2018-07-04T17:49:13.306Z,3.43
2018-07-04T17:51:51.953Z,3.97
2018-07-04T17:54:30.514Z,4.57
2018-07-04T17:57:09.092Z,4.90
2018-07-04T17:59:47.768Z,3.87
2018-07-04T18:02:26.221Z,3.07
2018-07-04T18:05:04.733Z,4.23
2018-07-04T18:07:43.286Z,3.43
2018-07-04T18:10:21.696Z,4.20
2018-07-04T18:13:00.381Z,2.87
2018-07-04T18:15:39.125Z,1.93
2018-07-04T18:18:18.713Z,3.43
2018-07-04T18:20:59.716Z,3.37
2018-07-04T18:23:38.294Z,1.90
2018-07-04T18:26:16.929Z,4.83
2018-07-04T18:28:55.317Z,3.40
2018-07-04T18:31:33.946Z,2.20
2018-07-04T18:34:12.496Z,3.30
2018-07-04T18:36:51.056Z,2.67
2018-07-04T18:39:29.424Z,3.73
2018-07-04T18:42:08.105Z,3.13
2018-07-04T18:44:46.558Z,4.00
2018-07-04T18:47:25.214Z,2.93
2018-07-04T18:50:03.597Z,2.90
2018-07-04T18:52:42.090Z,2.57
2018-07-04T18:55:20.680Z,2.23
2018-07-04T18:57:59.523Z,2.07
2018-07-04T19:00:37.966Z,3.10
2018-07-04T19:03:16.394Z,2.50
2018-07-04T19:05:54.864Z,3.70
2018-07-04T19:08:33.473Z,4.13
2018-07-04T19:11:11.891Z,4.30
2018-07-04T19:13:50.917Z,2.70
2018-07-04T19:16:29.316Z,3.10
2018-07-04T19:19:07.945Z,2.53
2018-07-04T19:21:46.438Z,4.00
2018-07-04T19:24:25.301Z,2.90
2018-07-04T19:27:03.781Z,4.07
2018-07-04T19:29:42.149Z,5.07
2018-07-04T19:32:20.935Z,6.30
2018-07-04T19:34:59.504Z,1.63
2018-07-04T19:37:38.044Z,2.67
2018-07-04T19:40:16.641Z,3.93
2018-07-04T19:42:55.164Z,1.90
2018-07-04T19:45:33.633Z,6.97
2018-07-04T19:48:12.265Z,3.60
2018-07-04T19:50:50.789Z,3.43
2018-07-04T19:53:29.628Z,2.97
2018-07-04T19:56:07.990Z,3.03
2018-07-04T19:58:46.590Z,1.93
2018-07-04T20:01:24.929Z,3.93
2018-07-04T20:04:03.421Z,3.10
2018-07-04T20:06:42.074Z,4.13
2018-07-04T20:09:20.631Z,2.50
2018-07-04T20:11:59.306Z,4.17
2018-07-04T20:14:37.825Z,2.30
2018-07-04T20:17:16.443Z,2.40
2018-07-04T20:19:54.909Z,2.40
2018-07-04T20:22:33.590Z,3.20
2018-07-04T20:25:12.074Z,1.77
2018-07-04T20:27:50.753Z,4.77
2018-07-04T20:30:29.310Z,3.10
2018-07-04T20:33:07.886Z,1.90
2018-07-04T20:35:46.365Z,1.93
2018-07-04T20:38:24.858Z,2.20
2018-07-04T20:41:03.366Z,3.27
2018-07-04T20:43:42.005Z,3.63
2018-07-04T20:46:20.430Z,3.30
2018-07-04T20:48:59.032Z,5.50
2018-07-04T20:51:37.733Z,4.20
2018-07-04T20:54:16.416Z,2.80
2018-07-04T20:56:54.961Z,2.80
2018-07-04T20:59:33.516Z,3.43
2018-07-04T21:02:12.225Z,2.10
2018-07-04T21:04:50.889Z,2.17
2018-07-04T21:07:29.498Z,3.50
2018-07-04T21:10:08.021Z,3.80
2018-07-04T21:12:46.674Z,2.30
2018-07-04T21:15:25.229Z,1.70
2018-07-04T21:18:03.869Z,2.90
2018-07-04T21:20:42.221Z,2.03
2018-07-04T21:23:21.418Z,2.80
2018-07-04T21:25:59.861Z,2.97
2018-07-04T21:28:38.473Z,4.50
2018-07-04T21:31:16.917Z,2.60
2018-07-04T21:33:55.466Z,3.10
2018-07-04T21:36:34.197Z,2.63
2018-07-04T21:39:12.711Z,2.60
2018-07-04T21:41:51.317Z,2.87
2018-07-04T21:44:29.769Z,3.73
2018-07-04T21:47:08.454Z,3.10
2018-07-04T21:49:46.967Z,2.17
2018-07-04T21:52:25.314Z,3.37
2018-07-04T21:55:04.022Z,3.23
2018-07-04T21:57:42.601Z,2.33
2018-07-04T22:00:22.777Z,2.60
2018-07-04T22:03:01.357Z,3.50
2018-07-04T22:05:40.042Z,2.93
2018-07-04T22:08:19.166Z,3.13
2018-07-04T22:10:57.647Z,2.83
2018-07-04T22:13:36.168Z,2.63
2018-07-04T22:16:14.632Z,3.13
2018-07-04T22:18:53.412Z,2.77
2018-07-04T22:21:31.884Z,3.90
2018-07-04T22:24:10.505Z,3.50
2018-07-04T22:26:48.889Z,4.00
2018-07-04T22:29:27.369Z,3.50
2018-07-04T22:32:05.934Z,4.53
2018-07-04T22:34:44.564Z,4.20
2018-07-04T22:37:23.122Z,3.27
2018-07-04T22:40:01.725Z,3.30
2018-07-04T22:42:40.302Z,3.73
2018-07-04T22:45:18.889Z,3.87
2018-07-04T22:47:57.410Z,4.40
2018-07-04T22:50:36.091Z,4.53
2018-07-04T22:53:15.081Z,6.10
2018-07-04T22:55:53.553Z,4.37
2018-07-04T22:58:32.102Z,3.90
2018-07-04T23:01:10.518Z,3.47
2018-07-04T23:03:49.066Z,3.77
2018-07-04T23:06:27.546Z,8.13
2018-07-04T23:09:06.116Z,4.47
2018-07-04T23:11:44.766Z,4.70
2018-07-04T23:14:23.266Z,4.40
2018-07-04T23:17:01.917Z,4.47
2018-07-04T23:19:40.478Z,4.17
2018-07-04T23:22:19.078Z,4.33
2018-07-04T23:24:57.605Z,4.00
2018-07-04T23:27:36.053Z,4.20
2018-07-04T23:30:14.592Z,5.93
2018-07-04T23:32:53.192Z,4.50
2018-07-04T23:35:31.830Z,6.90
2018-07-04T23:38:10.481Z,4.30
2018-07-04T23:40:49.091Z,6.30
2018-07-04T23:43:27.596Z,4.07
2018-07-04T23:46:06.205Z,4.77
2018-07-04T23:48:44.725Z,6.93
2018-07-04T23:51:23.387Z,4.50
2018-07-04T23:54:01.958Z,4.37
2018-07-04T23:56:40.489Z,7.77
2018-07-04T23:59:19.073Z,4.80
